Time;durP1;ratioP1;P1;durP2;ratioP2;P2;SDS_P1;SDS_P2;PMS_P1;PMS_P2;Temp;Humidity;BMP_temperature;BMP_pressure;BME280_temperature;BME280_humidity;BME280_pressure;Samples;Min_cycle;Max_cycle;Signal;HPM_P1;HPM_P2
2021/07/03 00:02:22;;;;;;;6.00;5.33;;;19.00;99.90;;;;;;5062625;28;20457;-80
2021/07/03 00:04:50;;;;;;;5.73;5.13;;;19.10;99.90;;;;;;5071732;28;20451;-79
2021/07/03 00:07:18;;;;;;;5.57;4.90;;;19.10;99.90;;;;;;5084489;28;20465;-80
2021/07/03 00:09:47;;;;;;;4.97;4.47;;;18.80;99.90;;;;;;5069263;28;20881;-80
2021/07/03 00:12:16;;;;;;;5.10;4.70;;;19.10;99.90;;;;;;5071975;28;20487;-79
2021/07/03 00:14:44;;;;;;;6.80;5.47;;;19.10;99.90;;;;;;5061630;28;20476;-79
2021/07/03 00:17:13;;;;;;;5.90;5.30;;;19.00;99.90;;;;;;5085204;28;20539;-80
2021/07/03 00:19:41;;;;;;;5.83;5.33;;;19.00;99.90;;;;;;5063090;28;20533;-79
2021/07/03 00:22:09;;;;;;;5.93;5.10;;;19.00;99.90;;;;;;5075761;28;20511;-80
2021/07/03 00:24:37;;;;;;;7.13;5.90;;;18.90;99.90;;;;;;5069149;28;20508;-79
2021/07/03 00:27:07;;;;;;;5.93;5.33;;;18.90;99.90;;;;;;5068940;28;20461;-79
2021/07/03 00:29:35;;;;;;;5.93;5.33;;;18.90;99.90;;;;;;5071258;28;20453;-78
2021/07/03 00:32:03;;;;;;;5.70;4.90;;;18.80;99.90;;;;;;5070124;28;20453;-80
2021/07/03 00:34:31;;;;;;;6.80;5.27;;;18.80;99.90;;;;;;5069696;28;20984;-79
2021/07/03 00:37:00;;;;;;;7.87;4.53;;;18.80;99.90;;;;;;5068653;28;20512;-79
2021/07/03 00:39:29;;;;;;;5.93;5.20;;;18.70;99.90;;;;;;5070374;28;20522;-79
2021/07/03 00:41:57;;;;;;;6.13;4.97;;;18.70;99.90;;;;;;5060660;28;20966;-80
2021/07/03 00:44:28;;;;;;;5.10;4.53;;;18.70;99.90;;;;;;5069959;28;20441;-80
2021/07/03 00:46:56;;;;;;;5.37;4.30;;;18.70;99.90;;;;;;5070006;28;20515;-80
2021/07/03 00:49:24;;;;;;;5.73;3.90;;;18.70;99.90;;;;;;5052416;28;20462;-80
2021/07/03 00:51:53;;;;;;;4.70;4.20;;;18.70;99.90;;;;;;5068903;28;20457;-80
2021/07/03 00:54:22;;;;;;;4.97;4.20;;;18.60;99.90;;;;;;5072756;28;20460;-79
2021/07/03 00:57:01;;;;;;;5.83;4.80;;;18.50;99.90;;;;;;5077330;28;20601;-79
2021/07/03 00:59:33;;;;;;;5.70;4.80;;;18.60;99.90;;;;;;5075137;28;20484;-80
2021/07/03 01:02:01;;;;;;;4.20;3.83;;;18.60;99.90;;;;;;5072752;28;20828;-79
2021/07/03 01:04:30;;;;;;;5.23;4.50;;;18.60;99.90;;;;;;5072161;28;20457;-80
2021/07/03 01:06:58;;;;;;;4.87;4.37;;;18.60;99.90;;;;;;5050515;28;20552;-80
2021/07/03 01:09:27;;;;;;;5.00;4.50;;;18.50;99.90;;;;;;5052174;28;20491;-80
2021/07/03 01:11:55;;;;;;;6.20;4.97;;;18.50;99.90;;;;;;5067196;28;21074;-80
2021/07/03 01:14:23;;;;;;;5.73;4.80;;;18.50;99.90;;;;;;5070130;28;20483;-79
2021/07/03 01:16:54;;;;;;;6.27;4.73;;;18.40;99.90;;;;;;5071305;28;20475;-80
2021/07/03 01:19:23;;;;;;;4.40;4.03;;;18.40;99.90;;;;;;5070301;28;20486;-80
2021/07/03 01:21:53;;;;;;;5.57;4.53;;;18.30;99.90;;;;;;5052815;28;20508;-80
2021/07/03 01:24:22;;;;;;;5.37;4.10;;;18.30;99.90;;;;;;5063170;28;21006;-79
2021/07/03 01:26:52;;;;;;;6.57;4.60;;;18.30;99.90;;;;;;5073587;28;20459;-79
2021/07/03 01:29:22;;;;;;;5.33;4.60;;;18.30;99.90;;;;;;5073241;28;21072;-79
2021/07/03 01:31:53;;;;;;;4.73;4.27;;;18.30;99.90;;;;;;5070897;28;20450;-80
2021/07/03 01:34:23;;;;;;;6.30;4.93;;;18.30;99.90;;;;;;5075937;28;20444;-80
2021/07/03 01:36:53;;;;;;;5.93;4.27;;;18.20;99.90;;;;;;5066020;28;20479;-79
2021/07/03 01:39:21;;;;;;;5.97;4.97;;;18.20;99.90;;;;;;5072908;28;20488;-78
2021/07/03 01:41:50;;;;;;;5.50;4.60;;;18.20;99.90;;;;;;5068094;28;20461;-78
2021/07/03 01:44:23;;;;;;;5.50;4.53;;;18.20;99.90;;;;;;5060329;28;20461;-78
2021/07/03 01:46:52;;;;;;;5.87;5.03;;;18.20;99.90;;;;;;5069969;28;20484;-79
2021/07/03 01:49:21;;;;;;;4.90;4.40;;;18.10;99.90;;;;;;5068005;28;20567;-78
2021/07/03 01:51:50;;;;;;;6.30;4.87;;;18.10;99.90;;;;;;5064978;28;20471;-78
2021/07/03 01:54:19;;;;;;;5.50;5.00;;;18.10;99.90;;;;;;5081488;28;20521;-78
2021/07/03 01:56:57;;;;;;;4.60;4.07;;;18.10;99.90;;;;;;5072516;28;20517;-79
2021/07/03 01:59:25;;;;;;;5.23;4.83;;;18.00;99.90;;;;;;5056875;28;20459;-78
2021/07/03 02:01:55;;;;;;;5.53;4.43;;;18.00;99.90;;;;;;5070928;28;20506;-81
2021/07/03 02:04:24;;;;;;;5.33;4.10;;;18.00;99.90;;;;;;5056523;28;20456;-78
2021/07/03 02:06:52;;;;;;;5.03;4.50;;;18.00;99.90;;;;;;5071605;28;20485;-80
2021/07/03 02:09:22;;;;;;;6.43;5.23;;;18.10;99.90;;;;;;5053427;28;20969;-79
2021/07/03 02:11:51;;;;;;;6.67;4.47;;;18.00;99.90;;;;;;5102251;28;21026;-80
2021/07/03 02:14:19;;;;;;;6.33;5.47;;;18.00;99.90;;;;;;5072620;28;20492;-79
2021/07/03 02:16:47;;;;;;;7.23;4.50;;;18.10;99.90;;;;;;5079252;28;20481;-79
2021/07/03 02:19:16;;;;;;;5.87;4.70;;;18.00;99.90;;;;;;5072293;28;20540;-79
2021/07/03 02:21:44;;;;;;;5.20;4.70;;;18.00;1.00;;;;;;5072138;28;20444;-79
2021/07/03 02:24:12;;;;;;;5.43;4.93;;;18.00;99.90;;;;;;5081908;28;20448;-79
2021/07/03 02:26:42;;;;;;;5.73;5.10;;;18.00;99.90;;;;;;5076590;28;20464;-78
2021/07/03 02:29:10;;;;;;;4.77;4.27;;;18.00;99.90;;;;;;5080087;28;20443;-79
2021/07/03 02:31:38;;;;;;;6.10;3.80;;;17.90;99.90;;;;;;5071552;28;20959;-79
2021/07/03 02:34:06;;;;;;;6.17;5.20;;;17.90;99.90;;;;;;5082763;28;20467;-78
2021/07/03 02:36:34;;;;;;;5.03;4.60;;;17.80;1.00;;;;;;5069612;28;20557;-79
2021/07/03 02:39:03;;;;;;;6.60;4.17;;;17.80;1.00;;;;;;5060608;28;20923;-80
2021/07/03 02:41:31;;;;;;;5.13;4.30;;;17.80;1.00;;;;;;5071198;28;20479;-78
2021/07/03 02:44:01;;;;;;;5.03;4.17;;;17.80;1.00;;;;;;5070811;28;20457;-78
2021/07/03 02:46:29;;;;;;;5.77;5.20;;;17.80;1.00;;;;;;5068488;28;20484;-78
2021/07/03 02:48:57;;;;;;;6.20;5.13;;;17.80;1.00;;;;;;5069690;28;20454;-79
2021/07/03 02:51:25;;;;;;;5.30;4.80;;;17.80;1.00;;;;;;5056884;28;20455;-79
2021/07/03 02:53:53;;;;;;;5.60;4.07;;;17.80;1.00;;;;;;5077707;28;20445;-78
2021/07/03 02:56:21;;;;;;;5.07;4.57;;;17.80;1.00;;;;;;5072012;28;20481;-79
2021/07/03 02:58:49;;;;;;;6.67;4.70;;;17.70;1.00;;;;;;5072670;28;20882;-78
2021/07/03 03:01:19;;;;;;;5.50;5.00;;;17.70;1.00;;;;;;5079205;28;21020;-79
2021/07/03 03:03:47;;;;;;;9.20;4.80;;;17.70;1.00;;;;;;5069337;28;21294;-79
2021/07/03 03:06:15;;;;;;;7.23;4.40;;;17.70;1.00;;;;;;5071250;28;20471;-78
2021/07/03 03:08:44;;;;;;;6.10;5.27;;;17.70;1.00;;;;;;5083828;28;20992;-78
2021/07/03 03:11:12;;;;;;;5.20;4.73;;;17.70;1.00;;;;;;5078774;28;20833;-80
2021/07/03 03:13:40;;;;;;;4.97;4.30;;;17.70;1.00;;;;;;5075309;28;20458;-79
2021/07/03 03:16:08;;;;;;;4.50;3.60;;;17.60;1.00;;;;;;5067932;28;20484;-78
2021/07/03 03:18:38;;;;;;;4.60;4.03;;;17.60;1.00;;;;;;5058525;28;20493;-79
2021/07/03 03:21:06;;;;;;;4.93;4.43;;;17.60;1.00;;;;;;5069312;28;20483;-78
2021/07/03 03:23:34;;;;;;;5.53;4.93;;;17.60;1.00;;;;;;5072786;28;20452;-78
2021/07/03 03:26:02;;;;;;;6.70;4.57;;;17.60;1.00;;;;;;5070589;28;20447;-78
2021/07/03 03:28:31;;;;;;;5.43;4.87;;;17.60;1.00;;;;;;5062458;28;20556;-78
2021/07/03 03:30:59;;;;;;;4.40;4.00;;;17.60;1.00;;;;;;5077473;28;20499;-79
2021/07/03 03:33:27;;;;;;;5.10;4.10;;;17.60;1.00;;;;;;5065861;28;20445;-78
2021/07/03 03:36:15;;;;;;;5.93;4.67;;;17.50;1.00;;;;;;5071371;28;20991;-78
2021/07/03 03:38:43;;;;;;;6.30;4.50;;;17.50;1.00;;;;;;5065584;28;20455;-78
2021/07/03 03:41:11;;;;;;;4.77;4.20;;;17.50;1.00;;;;;;5076048;28;20993;-77
2021/07/03 03:43:40;;;;;;;6.00;5.33;;;17.50;1.00;;;;;;5063361;28;20455;-77
2021/07/03 03:46:08;;;;;;;6.20;4.73;;;17.50;1.00;;;;;;5071004;28;20503;-77
2021/07/03 03:48:37;;;;;;;6.00;5.40;;;17.50;1.00;;;;;;5068371;28;20448;-78
2021/07/03 03:51:05;;;;;;;5.73;4.20;;;17.50;1.00;;;;;;5071207;28;20436;-77
2021/07/03 03:53:34;;;;;;;6.70;5.47;;;17.50;1.00;;;;;;5071057;28;20456;-79
2021/07/03 03:56:02;;;;;;;5.30;4.80;;;17.50;1.00;;;;;;5079456;28;20456;-78
2021/07/03 03:58:30;;;;;;;9.30;4.73;;;17.50;1.00;;;;;;5068533;28;20455;-78
2021/07/03 04:00:58;;;;;;;5.80;4.97;;;17.50;1.00;;;;;;5070508;28;20486;-79
2021/07/03 04:03:27;;;;;;;7.70;5.07;;;17.50;1.00;;;;;;5070551;28;21011;-77
2021/07/03 04:05:55;;;;;;;5.77;4.73;;;17.50;1.00;;;;;;5078724;28;20447;-78
2021/07/03 04:08:23;;;;;;;5.93;5.13;;;17.50;1.00;;;;;;5074196;28;20462;-79
2021/07/03 04:10:52;;;;;;;5.63;4.80;;;17.40;1.00;;;;;;5070788;28;20465;-78
2021/07/03 04:13:20;;;;;;;4.37;3.97;;;17.50;1.00;;;;;;5066945;28;20946;-77
2021/07/03 04:15:49;;;;;;;5.87;5.00;;;17.40;1.00;;;;;;5078165;28;20456;-78
2021/07/03 04:18:17;;;;;;;7.20;5.10;;;17.50;1.00;;;;;;5085599;28;20483;-78
2021/07/03 04:20:45;;;;;;;7.00;5.37;;;17.50;1.00;;;;;;5070751;28;20472;-79
2021/07/03 04:23:14;;;;;;;5.63;4.90;;;17.60;1.00;;;;;;5067200;28;20452;-79
2021/07/03 04:25:42;;;;;;;6.83;5.40;;;17.60;1.00;;;;;;5085920;28;20463;-78
2021/07/03 04:28:11;;;;;;;5.23;4.73;;;17.60;1.00;;;;;;5062102;28;20572;-77
2021/07/03 04:30:40;;;;;;;5.93;5.33;;;17.60;1.00;;;;;;5087051;28;20521;-76
2021/07/03 04:33:08;;;;;;;5.60;5.00;;;17.60;1.00;;;;;;5067517;28;21045;-79
2021/07/03 04:35:36;;;;;;;6.17;4.57;;;17.60;1.00;;;;;;5051151;28;20516;-78
2021/07/03 04:38:05;;;;;;;6.03;5.43;;;17.60;1.00;;;;;;5075413;28;20491;-77
2021/07/03 04:40:33;;;;;;;7.43;5.13;;;17.60;1.00;;;;;;5084959;28;20474;-77
2021/07/03 04:43:01;;;;;;;7.00;6.30;;;17.60;1.00;;;;;;5067957;28;20524;-78
2021/07/03 04:45:31;;;;;;;6.43;5.90;;;17.60;1.00;;;;;;5070382;28;20458;-77
2021/07/03 04:47:59;;;;;;;5.70;4.93;;;17.60;1.00;;;;;;5076523;28;20467;-77
2021/07/03 04:50:27;;;;;;;7.43;5.00;;;17.60;1.00;;;;;;5072034;28;20455;-78
2021/07/03 04:52:55;;;;;;;6.57;4.67;;;17.60;1.00;;;;;;5062866;28;20444;-76
2021/07/03 04:55:23;;;;;;;6.60;5.77;;;17.70;1.00;;;;;;5081453;28;20497;-79
2021/07/03 04:57:52;;;;;;;9.43;5.83;;;17.70;1.00;;;;;;5072030;28;20467;-78
2021/07/03 05:00:20;;;;;;;6.63;5.27;;;17.70;1.00;;;;;;5070628;28;20982;-77
2021/07/03 05:02:50;;;;;;;7.00;5.20;;;17.70;1.00;;;;;;5066900;28;20463;-75
2021/07/03 05:05:18;;;;;;;7.30;4.90;;;17.80;1.00;;;;;;5072200;28;20467;-80
2021/07/03 05:07:46;;;;;;;6.03;5.10;;;17.80;1.00;;;;;;5066494;28;20999;-78
2021/07/03 05:10:14;;;;;;;5.87;5.27;;;17.80;1.00;;;;;;5071788;28;20534;-77
2021/07/03 05:12:42;;;;;;;5.83;5.07;;;17.80;1.00;;;;;;5065087;28;20555;-80
2021/07/03 05:15:12;;;;;;;7.60;5.13;;;17.90;1.00;;;;;;5079210;28;20517;-77
2021/07/03 05:17:40;;;;;;;7.20;5.77;;;17.90;1.00;;;;;;5067937;28;20473;-78
2021/07/03 05:20:12;;;;;;;8.13;6.10;;;18.00;1.00;;;;;;5069866;28;20483;-78
2021/07/03 05:22:40;;;;;;;5.73;5.10;;;18.00;1.00;;;;;;5068889;28;20456;-76
2021/07/03 05:25:10;;;;;;;8.13;6.50;;;18.00;1.00;;;;;;5070108;28;20464;-79
2021/07/03 05:27:38;;;;;;;7.03;6.33;;;18.10;1.00;;;;;;5064627;28;21124;-78
2021/07/03 05:30:07;;;;;;;6.33;5.73;;;18.10;1.00;;;;;;5060887;28;20505;-77
2021/07/03 05:32:35;;;;;;;6.87;5.73;;;18.10;1.00;;;;;;5082010;28;20449;-77
2021/07/03 05:35:05;;;;;;;6.90;5.70;;;18.20;1.00;;;;;;5074640;28;20450;-76
2021/07/03 05:37:34;;;;;;;7.77;6.20;;;18.20;1.00;;;;;;5071770;28;20469;-77
2021/07/03 05:40:04;;;;;;;6.30;5.70;;;18.20;1.00;;;;;;5062062;28;20466;-77
2021/07/03 05:42:32;;;;;;;6.43;5.77;;;18.30;1.00;;;;;;5075859;28;20508;-77
2021/07/03 05:45:01;;;;;;;9.10;6.33;;;18.40;1.00;;;;;;5075085;28;21012;-81
2021/07/03 05:47:29;;;;;;;8.40;5.63;;;18.40;1.00;;;;;;5062985;28;20825;-81
2021/07/03 05:49:57;;;;;;;7.03;5.33;;;18.50;1.00;;;;;;5074685;28;20837;-81
2021/07/03 05:52:25;;;;;;;6.97;5.97;;;18.50;1.00;;;;;;5071997;28;20447;-79
2021/07/03 05:54:54;;;;;;;6.00;5.25;;;18.60;1.00;;;;;;5063776;28;20431;-80
2021/07/03 05:57:24;;;;;;;8.37;5.67;;;18.60;1.00;;;;;;5085217;28;20218;-78
2021/07/03 05:59:53;;;;;;;6.10;5.50;;;18.60;1.00;;;;;;5064580;28;21033;-78
2021/07/03 06:02:21;;;;;;;6.27;5.63;;;18.80;1.00;;;;;;5071879;28;21099;-76
2021/07/03 06:04:49;;;;;;;7.23;5.40;;;18.80;1.00;;;;;;5057909;28;20449;-78
2021/07/03 06:07:17;;;;;;;6.73;5.87;;;18.80;1.00;;;;;;5049428;28;21132;-78
2021/07/03 06:09:45;;;;;;;6.47;5.80;;;18.90;1.00;;;;;;5077421;28;20991;-80
2021/07/03 06:12:15;;;;;;;5.87;5.10;;;18.90;1.00;;;;;;5071972;28;20455;-79
2021/07/03 06:14:43;;;;;;;7.80;5.23;;;18.90;1.00;;;;;;5068971;28;20469;-78
2021/07/03 06:17:13;;;;;;;5.37;4.87;;;18.90;1.00;;;;;;5070979;28;20998;-78
2021/07/03 06:19:42;;;;;;;6.10;5.50;;;18.90;1.00;;;;;;5067857;28;20494;-77
2021/07/03 06:22:12;;;;;;;7.20;5.70;;;19.00;1.00;;;;;;5071672;28;20486;-79
2021/07/03 06:24:40;;;;;;;5.40;4.90;;;19.00;1.00;;;;;;5065313;28;20450;-79
2021/07/03 06:27:09;;;;;;;5.93;5.10;;;19.10;1.00;;;;;;5068779;28;20479;-79
2021/07/03 06:29:38;;;;;;;5.30;4.60;;;19.10;99.90;;;;;;5100121;28;20468;-79
2021/07/03 06:32:09;;;;;;;6.53;5.40;;;19.10;99.90;;;;;;5083738;28;20451;-79
2021/07/03 06:34:37;;;;;;;7.13;4.73;;;19.20;99.90;;;;;;5067082;28;20579;-79
2021/07/03 06:37:06;;;;;;;7.57;4.80;;;19.30;1.00;;;;;;5070103;28;20512;-79
2021/07/03 06:39:34;;;;;;;6.73;4.83;;;19.30;99.90;;;;;;5080582;28;20507;-76
2021/07/03 06:42:02;;;;;;;5.27;4.50;;;19.40;1.00;;;;;;5076231;28;20482;-75
2021/07/03 06:44:30;;;;;;;6.33;5.50;;;19.40;99.90;;;;;;5077254;28;21032;-77
2021/07/03 06:47:00;;;;;;;7.77;5.00;;;19.40;99.90;;;;;;5082560;28;20786;-79
2021/07/03 06:49:28;;;;;;;6.40;5.67;;;19.50;99.90;;;;;;5073480;28;20478;-78
2021/07/03 06:51:56;;;;;;;5.50;4.90;;;19.60;99.90;;;;;;5056935;28;20501;-75
2021/07/03 06:54:25;;;;;;;6.00;5.20;;;19.70;99.90;;;;;;5061058;28;20916;-77
2021/07/03 06:56:58;;;;;;;6.13;5.53;;;19.70;99.90;;;;;;5070001;28;20509;-79
2021/07/03 06:59:26;;;;;;;5.97;5.00;;;19.80;99.90;;;;;;5069191;28;20957;-77
2021/07/03 07:01:55;;;;;;;5.27;4.60;;;19.80;99.90;;;;;;5071327;28;20482;-80
2021/07/03 07:04:25;;;;;;;5.00;4.27;;;20.00;99.90;;;;;;5072611;28;20470;-79
2021/07/03 07:06:55;;;;;;;6.23;5.10;;;20.10;99.90;;;;;;5074431;28;20531;-78
2021/07/03 07:09:24;;;;;;;4.80;3.90;;;20.30;99.90;;;;;;5071854;28;20517;-81
2021/07/03 07:11:57;;;;;;;5.63;3.83;;;20.40;99.90;;;;;;5060211;28;20997;-79
2021/07/03 07:14:25;;;;;;;5.13;4.73;;;20.40;99.90;;;;;;5078254;28;20454;-79
2021/07/03 07:16:54;;;;;;;5.67;4.70;;;20.50;99.90;;;;;;5086835;28;21041;-82
2021/07/03 07:19:22;;;;;;;7.20;4.70;;;20.60;99.90;;;;;;5087541;28;20561;-80
2021/07/03 07:21:52;;;;;;;5.50;4.60;;;20.60;99.90;;;;;;5064743;28;20471;-81
2021/07/03 07:24:20;;;;;;;4.77;4.23;;;20.70;99.90;;;;;;5073128;28;20459;-81
2021/07/03 07:26:48;;;;;;;6.15;4.85;;;20.70;99.90;;;;;;5064474;28;20529;-79
2021/07/03 07:29:16;;;;;;;4.70;4.30;;;20.80;99.90;;;;;;5072465;28;20200;-80
2021/07/03 07:31:47;;;;;;;4.73;4.30;;;20.90;99.90;;;;;;5076887;28;20869;-80
2021/07/03 07:34:15;;;;;;;5.27;4.40;;;20.90;99.90;;;;;;5078692;28;20439;-81
2021/07/03 07:36:43;;;;;;;4.17;3.80;;;20.90;99.90;;;;;;5087329;28;20462;-80
2021/07/03 07:39:13;;;;;;;4.70;4.30;;;20.90;99.90;;;;;;5075908;28;20848;-80
2021/07/03 07:41:41;;;;;;;6.27;4.20;;;20.90;99.90;;;;;;5073399;28;20475;-82
2021/07/03 07:44:09;;;;;;;4.63;4.07;;;20.90;99.90;;;;;;5074687;28;20480;-80
2021/07/03 07:46:37;;;;;;;4.30;3.90;;;20.90;99.90;;;;;;5094569;28;20469;-81
2021/07/03 07:49:05;;;;;;;4.67;4.10;;;21.00;99.90;;;;;;5086754;28;20455;-80
2021/07/03 07:51:34;;;;;;;5.10;4.57;;;21.10;99.90;;;;;;5073294;28;20438;-80
2021/07/03 07:54:02;;;;;;;4.87;4.40;;;21.10;99.90;;;;;;5082513;28;20534;-79
2021/07/03 07:56:31;;;;;;;4.30;4.00;;;21.10;99.90;;;;;;5062607;28;21060;-80
2021/07/03 07:58:59;;;;;;;5.70;4.17;;;21.10;99.90;;;;;;5075278;28;20492;-80
2021/07/03 08:01:28;;;;;;;5.20;4.30;;;21.20;99.90;;;;;;5060097;28;20462;-79
2021/07/03 08:03:56;;;;;;;5.63;4.90;;;21.30;99.90;;;;;;5068930;28;20558;-80
2021/07/03 08:06:24;;;;;;;5.17;3.57;;;21.30;99.90;;;;;;5074264;28;20504;-80
2021/07/03 08:08:52;;;;;;;4.00;3.60;;;21.30;99.90;;;;;;5074650;28;20481;-81
2021/07/03 08:11:20;;;;;;;4.23;3.87;;;21.30;99.90;;;;;;5089696;28;20458;-80
2021/07/03 08:13:50;;;;;;;3.97;3.67;;;21.40;99.90;;;;;;5070914;28;20896;-81
2021/07/03 08:16:18;;;;;;;4.57;3.50;;;21.40;99.90;;;;;;5065629;28;20474;-81
2021/07/03 08:18:47;;;;;;;4.13;3.73;;;21.40;99.90;;;;;;5068725;28;20454;-80
2021/07/03 08:21:16;;;;;;;3.60;3.30;;;21.50;99.90;;;;;;5086221;28;20447;-79
2021/07/03 08:23:45;;;;;;;5.90;3.63;;;21.50;99.90;;;;;;5074332;28;20456;-80
2021/07/03 08:26:13;;;;;;;4.30;3.27;;;21.50;99.90;;;;;;5079791;28;20484;-81
2021/07/03 08:28:41;;;;;;;4.10;3.00;;;21.60;99.90;;;;;;5073158;28;20458;-79
2021/07/03 08:31:10;;;;;;;5.77;3.03;;;21.70;99.90;;;;;;5081988;28;21015;-81
2021/07/03 08:33:39;;;;;;;5.03;3.47;;;21.70;99.90;;;;;;5077044;28;20934;-80
2021/07/03 08:36:07;;;;;;;5.40;3.57;;;21.60;99.90;;;;;;5076069;28;20443;-79
2021/07/03 08:38:35;;;;;;;5.13;4.27;;;21.60;99.90;;;;;;5079615;28;20459;-79
2021/07/03 08:41:03;;;;;;;4.73;4.00;;;21.70;99.90;;;;;;5077590;28;20457;-81
2021/07/03 08:43:31;;;;;;;3.47;3.17;;;21.80;99.90;;;;;;5084863;28;20491;-79
2021/07/03 08:46:00;;;;;;;5.33;4.47;;;21.80;99.90;;;;;;5078335;28;20512;-80
2021/07/03 08:48:30;;;;;;;2.83;2.63;;;21.90;99.90;;;;;;5075412;28;20955;-81
2021/07/03 08:50:59;;;;;;;4.57;4.20;;;21.90;99.90;;;;;;5071093;28;20967;-84
2021/07/03 08:53:28;;;;;;;3.87;3.43;;;21.90;99.90;;;;;;5069470;28;20892;-79
2021/07/03 08:55:58;;;;;;;4.03;3.50;;;21.90;99.90;;;;;;5071785;28;20525;-80
2021/07/03 08:58:26;;;;;;;3.37;3.07;;;21.80;99.90;;;;;;5077818;28;20923;-80
2021/07/03 09:00:55;;;;;;;3.93;3.63;;;21.90;99.90;;;;;;5059955;28;20452;-79
2021/07/03 09:03:24;;;;;;;3.50;3.20;;;21.90;99.90;;;;;;5078219;28;20869;-80
2021/07/03 09:05:56;;;;;;;3.10;2.90;;;21.90;99.90;;;;;;5074956;28;20526;-79
2021/07/03 09:08:26;;;;;;;4.93;3.57;;;21.90;99.90;;;;;;5098570;28;20453;-78
2021/07/03 09:11:05;;;;;;;4.67;3.60;;;22.00;99.90;;;;;;5071228;28;20444;-76
2021/07/03 09:13:34;;;;;;;4.40;3.37;;;22.10;99.90;;;;;;5062918;28;20466;-78
2021/07/03 09:16:03;;;;;;;3.70;3.40;;;22.20;99.90;;;;;;5068051;28;20518;-79
2021/07/03 09:18:32;;;;;;;4.00;3.20;;;22.20;99.90;;;;;;5063368;28;20464;-79
2021/07/03 09:21:03;;;;;;;3.93;3.07;;;22.20;99.90;;;;;;5068624;28;20969;-78
2021/07/03 09:23:33;;;;;;;3.87;3.50;;;22.20;99.90;;;;;;5077415;28;21231;-81
2021/07/03 09:26:04;;;;;;;2.73;2.53;;;22.20;99.90;;;;;;5054229;28;20467;-79
2021/07/03 09:28:34;;;;;;;3.03;2.73;;;22.20;99.90;;;;;;5057175;28;20460;-78
2021/07/03 09:31:04;;;;;;;3.43;3.13;;;22.30;99.90;;;;;;5063280;28;20444;-80
2021/07/03 09:33:35;;;;;;;3.07;2.80;;;22.30;99.90;;;;;;5060255;28;20455;-80
2021/07/03 09:36:06;;;;;;;3.53;3.03;;;22.30;99.90;;;;;;5062539;28;20443;-79
2021/07/03 09:38:36;;;;;;;3.07;2.80;;;22.40;99.90;;;;;;5071281;28;20457;-78
2021/07/03 09:41:09;;;;;;;5.00;3.10;;;22.50;99.90;;;;;;5070726;28;20458;-80
2021/07/03 09:43:37;;;;;;;3.27;3.07;;;22.60;99.90;;;;;;5072380;28;20553;-79
2021/07/03 09:46:05;;;;;;;5.77;3.37;;;22.60;99.90;;;;;;5064946;28;20541;-75
2021/07/03 09:48:33;;;;;;;4.30;3.23;;;22.60;99.90;;;;;;5065167;28;20444;-76
2021/07/03 09:51:10;;;;;;;3.70;3.40;;;22.60;99.90;;;;;;5077489;28;21106;-75
2021/07/03 09:53:38;;;;;;;3.53;3.23;;;22.60;99.90;;;;;;5079604;28;20780;-75
2021/07/03 09:56:07;;;;;;;4.90;2.53;;;22.70;99.90;;;;;;5074680;28;20456;-76
2021/07/03 09:58:35;;;;;;;5.87;3.10;;;22.70;99.90;;;;;;5069677;28;20461;-76
2021/07/03 10:01:04;;;;;;;4.20;3.00;;;22.70;99.90;;;;;;5062817;28;20519;-75
2021/07/03 10:03:32;;;;;;;3.67;3.10;;;22.80;99.90;;;;;;5066274;28;21356;-78
2021/07/03 10:06:03;;;;;;;3.37;3.10;;;22.80;99.90;;;;;;5069182;28;20497;-77
2021/07/03 10:08:37;;;;;;;3.67;3.20;;;22.90;99.90;;;;;;5067419;28;20453;-75
2021/07/03 10:11:08;;;;;;;3.47;3.17;;;22.80;99.90;;;;;;5062187;28;20456;-75
2021/07/03 10:13:39;;;;;;;3.33;3.03;;;22.80;99.90;;;;;;5066178;28;20468;-76
2021/07/03 10:16:09;;;;;;;3.23;2.93;;;22.90;99.90;;;;;;5068845;28;21323;-76
2021/07/03 10:18:39;;;;;;;3.13;2.83;;;22.90;99.90;;;;;;5072007;28;20454;-74
2021/07/03 10:21:09;;;;;;;4.30;3.13;;;22.90;99.90;;;;;;5070090;28;20497;-74
2021/07/03 10:23:41;;;;;;;8.30;2.93;;;23.00;99.90;;;;;;5066414;28;20485;-75
2021/07/03 10:26:09;;;;;;;2.97;2.77;;;23.10;99.90;;;;;;5066864;28;20458;-76
2021/07/03 10:28:41;;;;;;;4.03;3.20;;;23.10;99.90;;;;;;5083530;28;20956;-76
2021/07/03 10:31:11;;;;;;;4.40;2.93;;;23.10;99.90;;;;;;5065954;28;20460;-75
2021/07/03 10:33:45;;;;;;;23.53;8.90;;;23.10;99.90;;;;;;5080879;28;20528;-76
2021/07/03 10:36:25;;;;;;;18.80;11.27;;;23.20;99.90;;;;;;5061569;28;20470;-71
2021/07/03 10:38:56;;;;;;;13.97;9.73;;;23.20;99.90;;;;;;5067612;28;20507;-75
2021/07/03 10:41:25;;;;;;;15.10;10.13;;;23.20;99.90;;;;;;5066000;28;20445;-76
2021/07/03 10:43:55;;;;;;;9.67;6.47;;;23.20;99.90;;;;;;5070033;28;20481;-76
2021/07/03 10:46:32;;;;;;;4.67;4.13;;;23.30;99.90;;;;;;5073805;28;20488;-76
2021/07/03 10:49:02;;;;;;;3.57;3.27;;;23.20;99.90;;;;;;5053829;28;20471;-77
2021/07/03 10:51:33;;;;;;;4.43;3.63;;;23.20;99.90;;;;;;5069434;28;20459;-77
2021/07/03 10:54:11;;;;;;;5.03;3.40;;;23.20;99.90;;;;;;5063334;28;20499;-76
2021/07/03 10:56:42;;;;;;;4.43;3.40;;;23.20;99.90;;;;;;5074911;28;20470;-73
2021/07/03 10:59:10;;;;;;;3.43;2.80;;;23.20;99.90;;;;;;5070598;28;20461;-75
2021/07/03 11:01:39;;;;;;;3.97;3.67;;;23.20;99.90;;;;;;5070235;28;20449;-76
2021/07/03 11:04:16;;;;;;;3.37;3.07;;;23.20;99.90;;;;;;5083806;28;20852;-77
2021/07/03 11:06:46;;;;;;;4.73;3.70;;;23.30;99.90;;;;;;5053442;28;20478;-76
2021/07/03 11:09:31;;;;;;;7.37;3.30;;;23.30;99.90;;;;;;5066859;28;20536;-76
2021/07/03 11:12:12;;;;;;;5.90;3.40;;;23.30;99.90;;;;;;5064386;28;20485;-79
2021/07/03 11:14:47;;;;;;;6.20;4.53;;;23.40;99.90;;;;;;5066603;28;20450;-78
2021/07/03 11:17:17;;;;;;;3.20;3.00;;;23.50;99.90;;;;;;5092370;28;20458;-81
2021/07/03 11:19:50;;;;;;;4.07;3.30;;;23.50;99.90;;;;;;5068390;28;20444;-81
2021/07/03 11:22:22;;;;;;;3.63;3.43;;;23.50;99.90;;;;;;5062118;28;20542;-82
2021/07/03 11:24:53;;;;;;;7.07;4.00;;;23.60;99.90;;;;;;5069978;28;20486;-73
2021/07/03 11:27:29;;;;;;;3.63;3.33;;;23.60;99.90;;;;;;5068084;28;20478;-81
2021/07/03 11:29:58;;;;;;;4.53;3.20;;;23.70;99.90;;;;;;5067720;28;20438;-82
2021/07/03 11:32:27;;;;;;;4.10;3.70;;;23.70;99.90;;;;;;5070708;28;20447;-79
2021/07/03 11:34:58;;;;;;;3.17;2.57;;;23.70;99.90;;;;;;5064905;28;20797;-78
2021/07/03 11:37:32;;;;;;;3.30;3.10;;;23.80;99.90;;;;;;5086509;28;20486;-80
2021/07/03 11:40:04;;;;;;;3.60;3.30;;;23.70;99.90;;;;;;5070217;28;20910;-79
2021/07/03 11:42:35;;;;;;;2.90;2.67;;;23.70;99.90;;;;;;5071479;28;20462;-81
2021/07/03 11:45:05;;;;;;;2.90;2.60;;;23.80;99.90;;;;;;5084072;28;20550;-82
2021/07/03 11:47:35;;;;;;;3.30;3.00;;;23.80;99.90;;;;;;5070209;28;20466;-78
2021/07/03 11:50:05;;;;;;;3.50;2.77;;;23.80;99.90;;;;;;5071540;28;20492;-78
2021/07/03 11:52:45;;;;;;;3.63;3.37;;;23.80;99.90;;;;;;5071751;28;20484;-82
2021/07/03 11:55:17;;;;;;;3.27;2.97;;;23.90;99.90;;;;;;5068221;28;20441;-78
2021/07/03 11:57:46;;;;;;;3.33;3.13;;;24.00;99.90;;;;;;5071614;28;20466;-78
2021/07/03 12:00:17;;;;;;;3.90;3.57;;;24.00;99.90;;;;;;5070482;28;20439;-79
2021/07/03 12:02:45;;;;;;;3.10;2.70;;;24.00;99.90;;;;;;5069306;28;20458;-80
2021/07/03 12:05:15;;;;;;;3.20;2.70;;;24.10;99.90;;;;;;5065335;28;20478;-79
2021/07/03 12:07:44;;;;;;;2.83;2.63;;;24.10;99.90;;;;;;5063433;28;20514;-79
2021/07/03 12:10:13;;;;;;;2.57;2.37;;;24.20;99.90;;;;;;5050126;28;20451;-79
2021/07/03 12:12:52;;;;;;;2.60;2.40;;;24.20;99.90;;;;;;5049231;28;20455;-81
2021/07/03 12:15:25;;;;;;;2.80;2.60;;;24.20;99.90;;;;;;5064712;28;20450;-79
2021/07/03 12:17:53;;;;;;;2.50;2.30;;;24.30;99.90;;;;;;5065157;28;20509;-80
2021/07/03 12:20:22;;;;;;;2.40;2.20;;;24.30;99.90;;;;;;5050345;28;20785;-78
2021/07/03 12:22:59;;;;;;;3.07;2.80;;;24.30;99.90;;;;;;5050809;28;20852;-79
2021/07/03 12:25:27;;;;;;;2.70;2.50;;;24.30;99.90;;;;;;5049935;28;20483;-80
2021/07/03 12:28:00;;;;;;;2.57;2.37;;;24.40;99.90;;;;;;5061412;28;20462;-79
2021/07/03 12:30:30;;;;;;;2.80;2.03;;;24.40;99.90;;;;;;5078325;28;20447;-78
2021/07/03 12:33:07;;;;;;;2.60;2.40;;;24.40;99.90;;;;;;5070308;28;20595;-81
2021/07/03 12:35:38;;;;;;;2.37;2.17;;;24.40;99.90;;;;;;5069295;28;20854;-83
2021/07/03 12:38:07;;;;;;;2.03;1.83;;;24.40;99.90;;;;;;5069235;28;20554;-80
2021/07/03 12:40:38;;;;;;;1.80;1.70;;;24.40;99.90;;;;;;5060133;28;20443;-78
2021/07/03 12:43:08;;;;;;;2.70;1.70;;;24.50;99.90;;;;;;5056629;28;20451;-79
2021/07/03 12:45:39;;;;;;;2.10;1.90;;;24.50;99.90;;;;;;5084677;28;20520;-80
2021/07/03 12:48:10;;;;;;;2.00;1.90;;;24.50;99.90;;;;;;5068635;28;20866;-78
2021/07/03 12:50:39;;;;;;;2.83;2.63;;;24.60;99.90;;;;;;5070968;28;20946;-81
2021/07/03 12:53:10;;;;;;;2.73;2.53;;;24.50;99.90;;;;;;5058017;28;20462;-79
2021/07/03 12:55:41;;;;;;;4.60;2.80;;;24.60;99.90;;;;;;5065773;28;20431;-77
2021/07/03 12:58:25;;;;;;;2.40;2.20;;;24.60;99.90;;;;;;5049002;28;20536;-79
2021/07/03 13:01:06;;;;;;;2.20;2.03;;;24.60;99.90;;;;;;5071463;28;20560;-78
2021/07/03 13:03:35;;;;;;;2.83;2.60;;;24.70;99.90;;;;;;5067507;28;20541;-82